Boggstown, Indiana
Current Conditions -  °F | °C
As of 3:53 PM on Tuesday 25 Nov 2014 (Local Time) from KGEZ Reporting Station
Overcast Overcast  
Wind Chill: 24°   Ceiling: 1900
Heat Index: 33°   Visibility: 10mi
Dew Point: 25°   Wind: 12mph
Humidity: 72%   Direction: 290°WNW
Pressure: 30.14"   Gusts: NA
Location:  39.56°N, 85.92°W
Report Text: KGEZ 252053Z AUTO 29010KT 10SM OVC019 01/M04 A3014 RMK AO2 SLP215 T00061039 53009
Loading
Personal Weather Stations






























Interactive Weather Map New forecast layout! Learn more

10-Day Weather Forecast

Advertisements
Track Severe Weather on mobile